Time;durP1;ratioP1;P1;durP2;ratioP2;P2;SDS_P1;SDS_P2;PMS_P1;PMS_P2;Temp;Humidity;BMP_temperature;BMP_pressure;BME280_temperature;BME280_humidity;BME280_pressure;Samples;Min_cycle;Max_cycle;Signal;HPM_P1;HPM_P2
2022/07/28 00:00:43;;;;;;;2.75;1.30;;;15.70;90.50;;;;;;5049712;28;20052;-79
2022/07/28 00:03:09;;;;;;;2.80;1.33;;;15.70;90.50;;;;;;5050871;28;20106;-84
2022/07/28 00:05:34;;;;;;;3.08;1.42;;;15.70;90.80;;;;;;5048921;28;20470;-79
2022/07/28 00:08:00;;;;;;;6.63;1.60;;;15.60;90.80;;;;;;5049614;28;20079;-79
2022/07/28 00:10:25;;;;;;;7.53;1.33;;;15.70;91.10;;;;;;5049584;28;20021;-82
2022/07/28 00:12:51;;;;;;;3.22;1.02;;;15.60;91.10;;;;;;5049217;28;20029;-83
2022/07/28 00:15:16;;;;;;;1.85;1.00;;;15.60;91.30;;;;;;5050380;28;20036;-79
2022/07/28 00:17:42;;;;;;;2.85;1.00;;;15.60;91.30;;;;;;5049241;28;20111;-79
2022/07/28 00:20:08;;;;;;;2.15;1.00;;;15.60;91.20;;;;;;5050451;28;20033;-81
2022/07/28 00:22:33;;;;;;;2.83;1.00;;;15.60;91.30;;;;;;5049189;28;20025;-79
2022/07/28 00:24:59;;;;;;;2.55;0.98;;;15.50;91.30;;;;;;5048846;28;20488;-80
2022/07/28 00:27:24;;;;;;;3.67;1.20;;;15.50;91.30;;;;;;5048891;28;20025;-79
2022/07/28 00:29:50;;;;;;;1.88;0.85;;;15.50;91.30;;;;;;5049230;28;20481;-79
2022/07/28 00:32:16;;;;;;;2.55;1.35;;;15.40;91.60;;;;;;5050284;28;20021;-81
2022/07/28 00:34:42;;;;;;;2.60;1.48;;;15.40;91.70;;;;;;5049858;28;20033;-80
2022/07/28 00:37:08;;;;;;;3.40;1.33;;;15.40;91.70;;;;;;5049662;28;20152;-83
2022/07/28 00:39:33;;;;;;;2.45;1.50;;;15.40;91.70;;;;;;5049345;28;20071;-79
2022/07/28 00:42:00;;;;;;;3.53;1.02;;;15.30;91.80;;;;;;5048691;28;20082;-79
2022/07/28 00:44:25;;;;;;;2.72;1.15;;;15.30;91.80;;;;;;5049164;28;20366;-79
2022/07/28 00:46:51;;;;;;;4.70;1.73;;;15.30;91.90;;;;;;5048505;28;20089;-80
2022/07/28 00:49:16;;;;;;;4.03;0.90;;;15.20;92.10;;;;;;5049051;28;20021;-79
2022/07/28 00:51:42;;;;;;;5.10;1.20;;;15.20;92.30;;;;;;5050093;28;20025;-81
2022/07/28 00:54:08;;;;;;;3.42;1.13;;;15.20;92.30;;;;;;5048721;28;20033;-83
2022/07/28 00:56:33;;;;;;;2.45;1.10;;;15.10;92.40;;;;;;5048532;28;20036;-78
2022/07/28 00:59:00;;;;;;;2.55;1.35;;;15.10;92.50;;;;;;5050059;28;20464;-84
2022/07/28 01:01:25;;;;;;;4.18;1.50;;;15.10;92.70;;;;;;5048555;28;20049;-79
2022/07/28 01:03:54;;;;;;;3.50;1.05;;;15.00;92.60;;;;;;5050042;28;20052;-78
2022/07/28 01:06:48;;;;;;;2.75;1.10;;;15.00;92.60;;;;;;5048252;28;20124;-79
2022/07/28 01:09:32;;;;;;;4.10;1.30;;;15.00;92.90;;;;;;5048772;28;20135;-84
2022/07/28 01:12:13;;;;;;;2.65;1.15;;;14.90;93.10;;;;;;5049911;28;20040;-79
2022/07/28 01:14:48;;;;;;;3.10;1.65;;;14.90;93.30;;;;;;5053591;28;20521;-80
2022/07/28 01:17:39;;;;;;;2.15;1.42;;;14.90;93.40;;;;;;5056384;28;20108;-79
2022/07/28 01:20:32;;;;;;;1.90;0.90;;;14.90;93.40;;;;;;5056522;28;20078;-77
2022/07/28 01:23:23;;;;;;;;;;;14.90;93.50;;;;;;5053428;28;20359;-78
2022/07/28 01:26:32;;;;;;;1.65;0.93;;;14.80;93.50;;;;;;5054262;28;19908;-79
2022/07/28 01:29:28;;;;;;;3.45;1.00;;;14.70;93.50;;;;;;5054012;28;20033;-77
2022/07/28 01:32:03;;;;;;;2.20;1.05;;;14.70;93.60;;;;;;5052222;28;20082;-78
2022/07/28 01:34:44;;;;;;;1.92;1.10;;;14.70;93.70;;;;;;5052691;28;20041;-78
2022/07/28 01:37:14;;;;;;;3.55;1.40;;;14.70;93.70;;;;;;5053336;28;20025;-78
2022/07/28 01:39:42;;;;;;;6.40;1.40;;;14.60;93.70;;;;;;5054240;28;20032;-77
2022/07/28 01:42:09;;;;;;;3.05;1.20;;;14.60;93.80;;;;;;5053455;28;20111;-82
2022/07/28 01:44:40;;;;;;;5.53;1.20;;;14.60;93.70;;;;;;5052508;28;20125;-80
2022/07/28 01:47:06;;;;;;;3.78;0.90;;;14.60;93.80;;;;;;5053579;28;20083;-82
2022/07/28 01:49:34;;;;;;;4.10;1.42;;;14.60;93.90;;;;;;5052393;28;20029;-79
2022/07/28 01:52:01;;;;;;;5.80;1.10;;;14.60;93.90;;;;;;5053243;28;20021;-79
2022/07/28 01:54:29;;;;;;;3.70;1.40;;;14.60;93.90;;;;;;5052302;28;20025;-81
2022/07/28 01:56:57;;;;;;;2.47;1.10;;;14.50;93.90;;;;;;5051426;28;20032;-81
2022/07/28 01:59:24;;;;;;;3.60;1.13;;;14.50;94.00;;;;;;5053686;28;20079;-77
2022/07/28 02:01:51;;;;;;;2.25;1.17;;;14.50;94.00;;;;;;5053368;28;20076;-78
2022/07/28 02:04:20;;;;;;;2.72;0.93;;;14.50;94.10;;;;;;5053708;28;20027;-79
2022/07/28 02:06:46;;;;;;;1.95;1.00;;;14.50;94.30;;;;;;5052753;28;20032;-79
2022/07/28 02:09:13;;;;;;;2.80;0.75;;;14.50;94.40;;;;;;5052954;28;20021;-81
2022/07/28 02:11:40;;;;;;;2.17;0.95;;;14.50;94.30;;;;;;5052636;28;20028;-79
2022/07/28 02:14:09;;;;;;;3.03;0.90;;;14.40;94.40;;;;;;5051918;28;20120;-79
2022/07/28 02:16:35;;;;;;;2.85;1.05;;;14.40;94.50;;;;;;5051162;28;20063;-78
2022/07/28 02:19:02;;;;;;;1.40;0.85;;;14.40;94.60;;;;;;5052258;28;20040;-79
2022/07/28 02:21:30;;;;;;;3.80;1.08;;;14.40;94.60;;;;;;5051483;28;20486;-79
2022/07/28 02:23:57;;;;;;;2.35;1.00;;;14.40;94.70;;;;;;5050410;28;20377;-77
2022/07/28 02:26:27;;;;;;;2.10;1.00;;;14.30;94.70;;;;;;5050937;28;20060;-80
2022/07/28 02:28:56;;;;;;;4.07;1.10;;;14.30;94.70;;;;;;5051570;28;20539;-78
2022/07/28 02:31:26;;;;;;;4.95;1.10;;;14.30;94.70;;;;;;5052838;28;20067;-78
2022/07/28 02:33:55;;;;;;;2.30;1.00;;;14.30;94.90;;;;;;5053051;28;20085;-79
2022/07/28 02:36:28;;;;;;;1.90;1.13;;;14.30;94.80;;;;;;5052185;28;20029;-81
2022/07/28 02:38:57;;;;;;;1.60;0.95;;;14.30;94.80;;;;;;5052707;28;20021;-79
2022/07/28 02:41:28;;;;;;;2.13;0.90;;;14.20;94.90;;;;;;5052323;28;20021;-79
2022/07/28 02:44:00;;;;;;;2.28;1.00;;;14.20;95.00;;;;;;5051020;28;20029;-78
2022/07/28 02:46:34;;;;;;;1.92;1.08;;;14.20;95.00;;;;;;5050718;28;20071;-78
2022/07/28 02:49:07;;;;;;;4.90;1.30;;;14.20;94.80;;;;;;5051127;28;20025;-81
2022/07/28 02:51:35;;;;;;;1.92;0.80;;;14.20;94.90;;;;;;5051123;28;20032;-78
2022/07/28 02:54:02;;;;;;;3.25;1.10;;;14.20;94.90;;;;;;5052311;28;20116;-79
2022/07/28 02:56:29;;;;;;;3.03;1.10;;;14.20;94.80;;;;;;5051763;28;20017;-79
2022/07/28 02:58:56;;;;;;;2.20;0.93;;;14.20;95.00;;;;;;5052281;28;20021;-78
2022/07/28 03:01:23;;;;;;;1.70;0.88;;;14.10;95.00;;;;;;5050669;28;20107;-79
2022/07/28 03:03:49;;;;;;;3.72;1.20;;;14.10;95.10;;;;;;5051968;28;20377;-81
2022/07/28 03:06:16;;;;;;;3.33;1.30;;;14.10;95.00;;;;;;5049869;28;20029;-79
2022/07/28 03:08:42;;;;;;;1.38;1.05;;;14.10;95.10;;;;;;5051920;28;20072;-81
2022/07/28 03:11:12;;;;;;;5.15;1.00;;;14.10;95.00;;;;;;5050183;28;20025;-79
2022/07/28 03:13:39;;;;;;;1.38;0.95;;;14.10;95.20;;;;;;5050729;28;20363;-78
2022/07/28 03:16:06;;;;;;;2.22;1.27;;;14.10;95.30;;;;;;5049772;28;20423;-79
2022/07/28 03:18:32;;;;;;;4.85;1.10;;;14.00;95.20;;;;;;5051871;28;20469;-78
2022/07/28 03:20:57;;;;;;;2.33;0.98;;;14.10;95.20;;;;;;5051212;28;20056;-79
2022/07/28 03:23:28;;;;;;;3.33;1.15;;;14.00;95.30;;;;;;5051775;28;20103;-79
2022/07/28 03:25:58;;;;;;;2.33;0.80;;;14.00;95.30;;;;;;5049534;28;20044;-78
2022/07/28 03:28:26;;;;;;;4.30;1.45;;;14.10;95.30;;;;;;5050505;28;20021;-79
2022/07/28 03:31:00;;;;;;;1.73;0.98;;;14.10;95.40;;;;;;5051161;28;20028;-79
2022/07/28 03:33:26;;;;;;;2.25;1.00;;;14.10;95.40;;;;;;5051864;28;20025;-78
2022/07/28 03:35:56;;;;;;;2.63;1.40;;;14.10;95.40;;;;;;5049124;28;20035;-79
2022/07/28 03:38:28;;;;;;;2.40;1.27;;;14.10;95.30;;;;;;5051559;28;20484;-80
2022/07/28 03:40:55;;;;;;;2.50;1.30;;;14.20;95.40;;;;;;5049719;28;20102;-82
2022/07/28 03:43:23;;;;;;;2.55;1.15;;;14.20;95.40;;;;;;5051665;28;20029;-78
2022/07/28 03:45:49;;;;;;;2.60;0.77;;;14.20;95.50;;;;;;5049053;28;20037;-79
2022/07/28 03:48:14;;;;;;;3.22;0.65;;;14.20;95.30;;;;;;5050019;28;20021;-78
2022/07/28 03:50:40;;;;;;;4.15;1.35;;;14.20;95.20;;;;;;5049705;28;20021;-77
2022/07/28 03:53:13;;;;;;;3.45;1.42;;;14.20;95.00;;;;;;5049593;28;20470;-78
2022/07/28 03:55:38;;;;;;;2.13;1.20;;;14.20;95.10;;;;;;5049226;28;20025;-81
2022/07/28 03:58:04;;;;;;;4.88;1.40;;;14.20;95.00;;;;;;5049759;28;20075;-79
2022/07/28 04:00:29;;;;;;;3.85;1.15;;;14.30;95.10;;;;;;5051025;28;20025;-79
2022/07/28 04:02:55;;;;;;;2.13;0.98;;;14.20;95.20;;;;;;5050409;28;20082;-79
2022/07/28 04:05:20;;;;;;;4.20;1.10;;;14.30;95.10;;;;;;5049166;28;20029;-77
2022/07/28 04:07:46;;;;;;;4.97;1.23;;;14.30;95.10;;;;;;5050634;28;20025;-79
2022/07/28 04:10:14;;;;;;;3.75;1.20;;;14.30;95.20;;;;;;5049681;28;20052;-79
2022/07/28 04:12:45;;;;;;;3.17;1.30;;;14.40;95.10;;;;;;5050656;28;20031;-79
2022/07/28 04:15:14;;;;;;;4.57;1.30;;;14.40;94.90;;;;;;5049347;28;20036;-78
2022/07/28 04:17:41;;;;;;;2.60;0.88;;;14.40;95.00;;;;;;5048939;28;20527;-80
2022/07/28 04:20:07;;;;;;;2.80;1.20;;;14.50;95.00;;;;;;5049199;28;20025;-78
2022/07/28 04:22:33;;;;;;;2.50;1.23;;;14.50;94.40;;;;;;5050405;28;20029;-81
2022/07/28 04:25:00;;;;;;;2.92;1.10;;;14.50;94.30;;;;;;5050903;28;20039;-78
2022/07/28 04:27:26;;;;;;;4.95;1.67;;;14.50;94.20;;;;;;5048614;28;20040;-79
2022/07/28 04:29:51;;;;;;;5.35;1.00;;;14.60;94.50;;;;;;5050518;28;20025;-80
2022/07/28 04:32:17;;;;;;;2.15;0.90;;;14.50;94.20;;;;;;5048845;28;20021;-79
2022/07/28 04:34:42;;;;;;;3.10;1.45;;;14.60;94.30;;;;;;5050618;28;20031;-77
2022/07/28 04:37:08;;;;;;;5.70;1.15;;;14.70;94.20;;;;;;5050432;28;20485;-79
2022/07/28 04:39:34;;;;;;;3.70;1.05;;;14.80;94.10;;;;;;5051239;28;20021;-78
2022/07/28 04:42:00;;;;;;;4.30;1.38;;;14.90;94.00;;;;;;5051356;28;20034;-78
2022/07/28 04:44:25;;;;;;;4.25;1.30;;;15.00;93.90;;;;;;5049511;28;20055;-82
2022/07/28 04:46:51;;;;;;;2.78;1.25;;;15.00;93.90;;;;;;5050071;28;20082;-84
2022/07/28 04:49:16;;;;;;;6.90;1.15;;;15.00;93.80;;;;;;5050586;28;20029;-76
2022/07/28 04:51:47;;;;;;;10.20;1.00;;;15.10;93.90;;;;;;5049213;28;20385;-78
2022/07/28 04:54:12;;;;;;;5.65;1.95;;;15.10;93.80;;;;;;5050226;28;20036;-78
2022/07/28 04:56:38;;;;;;;2.95;1.05;;;15.10;93.80;;;;;;5049508;28;20424;-81
2022/07/28 04:59:03;;;;;;;3.22;1.25;;;15.10;93.80;;;;;;5048888;28;20101;-79
2022/07/28 05:01:29;;;;;;;4.70;1.10;;;15.20;93.80;;;;;;5049741;28;20021;-76
2022/07/28 05:03:54;;;;;;;3.25;1.40;;;15.30;93.80;;;;;;5048758;28;20047;-86
2022/07/28 05:06:20;;;;;;;4.72;1.45;;;15.40;93.80;;;;;;5047904;28;20500;-79
2022/07/28 05:08:45;;;;;;;4.60;1.08;;;15.40;93.60;;;;;;5050070;28;20085;-80
2022/07/28 05:11:10;;;;;;;3.63;0.95;;;15.50;93.50;;;;;;5048203;28;20025;-79
2022/07/28 05:13:36;;;;;;;3.03;1.05;;;15.60;93.70;;;;;;5050603;28;20108;-81
2022/07/28 05:16:02;;;;;;;3.00;1.35;;;15.70;93.40;;;;;;5049867;28;20040;-81
2022/07/28 05:18:28;;;;;;;2.47;1.00;;;15.80;93.20;;;;;;5050365;28;20021;-82
2022/07/28 05:20:53;;;;;;;2.80;1.00;;;15.80;93.20;;;;;;5048480;28;20029;-80
2022/07/28 05:23:19;;;;;;;2.63;1.00;;;15.90;93.10;;;;;;5050308;28;20025;-77
2022/07/28 05:25:45;;;;;;;4.88;0.95;;;16.00;92.80;;;;;;5049454;28;20040;-80
2022/07/28 05:28:10;;;;;;;5.78;1.40;;;16.00;92.90;;;;;;5048567;28;20060;-79
2022/07/28 05:30:37;;;;;;;2.80;0.93;;;15.90;93.00;;;;;;5047694;28;20134;-80
2022/07/28 05:33:02;;;;;;;3.10;1.02;;;16.00;92.80;;;;;;5047922;28;20029;-79
2022/07/28 05:35:28;;;;;;;2.08;0.85;;;16.00;92.80;;;;;;5049296;28;20547;-83
2022/07/28 05:37:54;;;;;;;3.78;0.98;;;16.00;92.80;;;;;;5048159;28;20025;-79
2022/07/28 05:40:19;;;;;;;1.95;0.80;;;16.10;92.60;;;;;;5049903;28;20450;-79
2022/07/28 05:42:46;;;;;;;2.42;0.95;;;16.10;92.60;;;;;;5048047;28;20036;-81
2022/07/28 05:45:12;;;;;;;4.88;1.75;;;16.20;92.50;;;;;;5048204;28;20033;-77
2022/07/28 05:47:42;;;;;;;3.28;1.00;;;16.30;92.30;;;;;;5049082;28;20381;-80
2022/07/28 05:50:08;;;;;;;2.95;1.35;;;16.50;92.20;;;;;;5048244;28;20481;-79
2022/07/28 05:52:34;;;;;;;3.00;0.80;;;16.50;91.70;;;;;;5048111;28;20021;-81
2022/07/28 05:54:59;;;;;;;4.32;1.13;;;16.60;91.90;;;;;;5049790;28;20102;-79
2022/07/28 05:57:25;;;;;;;6.45;1.05;;;16.70;91.20;;;;;;5049319;28;20104;-78
2022/07/28 05:59:50;;;;;;;4.10;1.08;;;16.80;91.20;;;;;;5053361;28;20036;-81
2022/07/28 06:02:16;;;;;;;2.45;0.68;;;16.80;90.80;;;;;;5053158;28;20025;-80
2022/07/28 06:04:41;;;;;;;3.75;1.05;;;16.90;90.90;;;;;;5052119;28;20029;-77
2022/07/28 06:07:07;;;;;;;3.50;1.05;;;17.00;90.70;;;;;;5052846;28;20413;-81
2022/07/28 06:09:32;;;;;;;8.13;1.00;;;17.20;90.50;;;;;;5051983;28;20021;-80
2022/07/28 06:11:58;;;;;;;3.20;0.93;;;17.20;90.50;;;;;;5052736;28;20387;-80
2022/07/28 06:14:23;;;;;;;5.72;1.00;;;17.00;90.60;;;;;;5053096;28;20099;-79
2022/07/28 06:16:49;;;;;;;1.48;0.75;;;17.10;90.60;;;;;;5052480;28;20036;-80
2022/07/28 06:19:15;;;;;;;2.70;0.90;;;17.20;90.40;;;;;;5052976;28;20457;-83
2022/07/28 06:21:41;;;;;;;5.10;1.08;;;17.30;90.50;;;;;;5051405;28;20025;-77
2022/07/28 06:24:07;;;;;;;2.78;0.98;;;17.30;90.30;;;;;;5051447;28;20477;-84
2022/07/28 06:26:33;;;;;;;3.13;0.65;;;17.40;90.30;;;;;;5051167;28;20029;-80
2022/07/28 06:28:58;;;;;;;9.75;1.05;;;17.50;90.20;;;;;;5051514;28;20049;-82
2022/07/28 06:31:24;;;;;;;4.03;0.90;;;17.40;90.10;;;;;;5051123;28;20530;-83
2022/07/28 06:33:49;;;;;;;2.72;0.77;;;17.50;90.30;;;;;;5052822;28;20040;-79
2022/07/28 06:36:15;;;;;;;1.58;0.70;;;17.60;90.10;;;;;;5050363;28;20056;-83
2022/07/28 06:38:40;;;;;;;3.72;0.88;;;17.70;90.00;;;;;;5051412;28;20458;-81
2022/07/28 06:41:06;;;;;;;4.65;1.08;;;17.80;90.00;;;;;;5052119;28;20052;-80
2022/07/28 06:43:32;;;;;;;1.90;0.68;;;17.90;89.90;;;;;;5052809;28;20417;-83
2022/07/28 06:45:57;;;;;;;3.97;1.10;;;18.00;90.10;;;;;;5051779;28;20389;-79
2022/07/28 06:48:23;;;;;;;3.88;0.80;;;17.80;89.90;;;;;;5051246;28;20032;-80
2022/07/28 06:50:48;;;;;;;1.55;0.70;;;17.70;89.80;;;;;;5050678;28;20420;-80
2022/07/28 06:53:14;;;;;;;3.53;0.80;;;17.80;89.70;;;;;;5052416;28;20021;-79
2022/07/28 06:55:39;;;;;;;4.75;1.20;;;17.70;90.00;;;;;;5050458;28;20028;-81
2022/07/28 06:58:05;;;;;;;1.70;0.75;;;17.70;89.90;;;;;;5052632;28;20468;-80
2022/07/28 07:00:30;;;;;;;4.07;1.10;;;17.70;88.60;;;;;;5050983;28;20047;-80
2022/07/28 07:02:56;;;;;;;3.50;0.70;;;17.70;88.80;;;;;;5052013;28;20033;-79
2022/07/28 07:05:21;;;;;;;2.15;0.50;;;17.80;89.00;;;;;;5052017;28;20563;-86
2022/07/28 07:07:47;;;;;;;2.60;0.70;;;17.80;88.00;;;;;;5051053;28;20472;-85
2022/07/28 07:10:12;;;;;;;3.78;0.80;;;17.90;88.40;;;;;;5051903;28;20866;-80
2022/07/28 07:12:38;;;;;;;2.17;0.98;;;17.90;87.50;;;;;;5052140;28;20037;-80
2022/07/28 07:15:04;;;;;;;4.78;1.27;;;18.00;88.10;;;;;;5051329;28;20462;-81
2022/07/28 07:17:30;;;;;;;3.33;0.90;;;18.20;88.00;;;;;;5051972;28;20028;-77
2022/07/28 07:19:56;;;;;;;4.65;1.48;;;18.30;87.70;;;;;;5050621;28;20025;-80
2022/07/28 07:22:21;;;;;;;3.22;0.70;;;18.40;86.90;;;;;;5050550;28;20013;-79
2022/07/28 07:24:47;;;;;;;2.92;1.10;;;18.40;86.90;;;;;;5052194;28;20056;-84
2022/07/28 07:27:12;;;;;;;6.47;0.70;;;18.60;86.10;;;;;;5051321;28;20384;-83
2022/07/28 07:29:38;;;;;;;2.53;0.52;;;18.70;86.20;;;;;;5051158;28;20025;-79
2022/07/28 07:32:03;;;;;;;4.68;0.73;;;18.70;85.00;;;;;;5050259;28;20027;-83
2022/07/28 07:34:29;;;;;;;3.90;0.88;;;18.80;85.30;;;;;;5050328;28;20032;-82
2022/07/28 07:36:54;;;;;;;4.40;0.65;;;19.00;85.60;;;;;;5051374;28;20047;-80
2022/07/28 07:39:20;;;;;;;7.35;0.70;;;19.20;85.10;;;;;;5051567;28;20029;-80
2022/07/28 07:41:45;;;;;;;3.65;1.02;;;19.40;85.40;;;;;;5050493;28;20028;-79
2022/07/28 07:44:10;;;;;;;4.97;1.08;;;19.70;83.00;;;;;;5050151;28;20036;-80
2022/07/28 07:46:37;;;;;;;12.60;1.23;;;19.90;83.50;;;;;;5052736;28;20047;-78
2022/07/28 07:49:02;;;;;;;3.78;0.70;;;20.10;83.70;;;;;;5053259;28;20107;-79
2022/07/28 07:51:28;;;;;;;1.58;0.70;;;20.30;82.50;;;;;;5053343;28;20104;-79
2022/07/28 07:53:53;;;;;;;4.18;0.88;;;20.50;82.20;;;;;;5052663;28;20029;-82
2022/07/28 07:56:19;;;;;;;2.17;0.82;;;20.70;81.40;;;;;;5050464;28;20346;-78
2022/07/28 07:58:44;;;;;;;1.83;1.00;;;20.80;80.50;;;;;;5053711;28;20425;-85
2022/07/28 08:01:13;;;;;;;2.30;0.77;;;21.00;81.20;;;;;;5053798;28;20025;-82
2022/07/28 08:03:38;;;;;;;3.95;1.05;;;21.10;81.20;;;;;;5052695;28;20025;-79
2022/07/28 08:06:04;;;;;;;2.67;0.70;;;21.30;80.80;;;;;;5049313;28;20056;-79
2022/07/28 08:08:29;;;;;;;4.18;0.90;;;21.40;78.40;;;;;;5051637;28;20025;-79
2022/07/28 08:10:55;;;;;;;4.03;1.00;;;21.50;78.40;;;;;;5049298;28;20112;-80
2022/07/28 08:13:21;;;;;;;2.83;0.70;;;21.50;76.30;;;;;;5051150;28;20150;-84
2022/07/28 08:15:47;;;;;;;2.45;0.80;;;21.60;77.40;;;;;;5050383;28;20025;-82
2022/07/28 08:18:13;;;;;;;5.70;0.82;;;21.60;74.90;;;;;;5051155;28;20105;-80
2022/07/28 08:20:38;;;;;;;3.53;0.95;;;21.70;76.60;;;;;;5050936;28;20369;-78
2022/07/28 08:23:03;;;;;;;6.72;0.73;;;21.80;74.10;;;;;;5048811;28;20739;-80
2022/07/28 08:25:29;;;;;;;4.30;1.00;;;21.80;75.00;;;;;;5049617;28;20025;-85
2022/07/28 08:27:54;;;;;;;2.67;0.80;;;22.00;76.70;;;;;;5050532;28;20465;-82
2022/07/28 08:30:20;;;;;;;2.10;0.77;;;22.20;75.00;;;;;;5051446;28;20125;-79
2022/07/28 08:32:46;;;;;;;3.13;0.70;;;22.40;73.50;;;;;;5048973;28;20036;-80
2022/07/28 08:35:12;;;;;;;4.20;0.82;;;22.60;72.40;;;;;;5049051;28;20025;-81
2022/07/28 08:37:38;;;;;;;4.38;0.93;;;22.50;71.40;;;;;;5049971;28;20017;-80
2022/07/28 08:40:07;;;;;;;3.17;1.23;;;22.60;72.80;;;;;;5049363;28;20389;-82
2022/07/28 08:42:34;;;;;;;4.25;0.88;;;22.70;73.00;;;;;;5050840;28;20037;-84
2022/07/28 08:45:06;;;;;;;2.47;0.60;;;22.80;69.90;;;;;;5049008;28;20036;-82
2022/07/28 08:47:34;;;;;;;5.97;0.85;;;22.90;69.30;;;;;;5048524;28;20037;-82
2022/07/28 08:50:00;;;;;;;3.70;0.88;;;23.00;69.90;;;;;;5049087;28;20025;-80
2022/07/28 08:52:30;;;;;;;2.83;0.95;;;23.20;71.30;;;;;;5049887;28;20651;-83
2022/07/28 08:54:57;;;;;;;2.53;0.85;;;23.30;67.90;;;;;;5048847;28;20120;-80
2022/07/28 08:57:40;;;;;;;7.90;0.95;;;23.40;69.40;;;;;;5048502;28;20102;-80
2022/07/28 09:00:10;;;;;;;2.92;0.68;;;23.60;69.60;;;;;;5048952;28;20061;-81
2022/07/28 09:02:40;;;;;;;2.83;0.45;;;23.70;68.50;;;;;;5048669;28;20528;-81
2022/07/28 09:05:07;;;;;;;4.00;0.65;;;23.90;66.90;;;;;;5049704;28;20382;-81
2022/07/28 09:07:36;;;;;;;9.02;0.77;;;24.00;64.40;;;;;;5050198;28;20053;-81
2022/07/28 09:10:04;;;;;;;3.80;0.57;;;24.10;66.10;;;;;;5050054;28;20021;-81
2022/07/28 09:12:32;;;;;;;2.47;0.60;;;24.20;65.20;;;;;;5049955;28;20472;-79
2022/07/28 09:15:00;;;;;;;1.25;0.50;;;24.10;64.20;;;;;;5049910;28;20090;-79
2022/07/28 09:17:25;;;;;;;1.40;0.50;;;24.10;64.80;;;;;;5049467;28;20041;-82
2022/07/28 09:19:51;;;;;;;1.02;0.40;;;24.20;66.70;;;;;;5048650;28;20039;-83
2022/07/28 09:22:16;;;;;;;1.88;0.73;;;24.30;65.40;;;;;;5047576;28;20472;-80
2022/07/28 09:24:45;;;;;;;3.10;0.60;;;24.30;63.50;;;;;;5047746;28;20116;-79
2022/07/28 09:27:12;;;;;;;3.30;0.50;;;24.50;62.40;;;;;;5063673;28;20727;-81
2022/07/28 09:29:39;;;;;;;1.48;0.55;;;24.50;63.60;;;;;;5049993;28;20446;-79
2022/07/28 09:32:06;;;;;;;3.17;0.70;;;24.60;64.10;;;;;;5048082;28;20031;-80
2022/07/28 09:34:40;;;;;;;7.32;0.50;;;24.40;60.50;;;;;;5053637;28;20532;-82
2022/07/28 09:37:15;;;;;;;1.88;0.52;;;24.60;63.60;;;;;;5051610;28;20513;-80
2022/07/28 09:39:40;;;;;;;2.53;0.40;;;24.70;62.40;;;;;;5050555;28;20549;-79
2022/07/28 09:42:06;;;;;;;3.70;0.70;;;25.00;62.30;;;;;;5066005;28;20461;-80
2022/07/28 09:44:31;;;;;;;6.63;0.65;;;25.10;61.50;;;;;;5052317;28;20072;-80
2022/07/28 09:46:57;;;;;;;2.13;0.65;;;25.30;61.50;;;;;;5051229;28;20025;-80
2022/07/28 09:49:40;;;;;;;3.03;0.52;;;25.50;59.70;;;;;;5053653;28;20491;-80
2022/07/28 09:52:06;;;;;;;1.25;0.45;;;25.70;60.90;;;;;;5053284;28;20021;-80
2022/07/28 09:54:32;;;;;;;2.10;0.73;;;25.80;61.50;;;;;;5053641;28;20355;-80
2022/07/28 09:56:57;;;;;;;3.25;0.63;;;25.90;58.80;;;;;;5051303;28;20025;-80
2022/07/28 09:59:23;;;;;;;2.63;0.75;;;26.00;58.30;;;;;;5053487;28;20079;-80
2022/07/28 10:01:52;;;;;;;2.17;0.70;;;26.00;58.00;;;;;;5051653;28;20061;-83
2022/07/28 10:04:29;;;;;;;3.65;0.57;;;26.00;57.30;;;;;;5053107;28;20060;-80
2022/07/28 10:07:09;;;;;;;2.28;0.50;;;26.00;59.00;;;;;;5052610;28;20025;-81
2022/07/28 10:09:35;;;;;;;4.90;1.27;;;26.10;57.60;;;;;;5051838;28;20021;-82
2022/07/28 10:12:19;;;;;;;2.92;0.63;;;26.20;58.30;;;;;;5052713;28;20075;-82
2022/07/28 10:14:46;;;;;;;2.25;0.57;;;26.40;59.60;;;;;;5052016;28;20087;-82
2022/07/28 10:17:22;;;;;;;1.90;0.65;;;26.50;59.80;;;;;;5052438;28;20116;-79
2022/07/28 10:19:47;;;;;;;3.78;0.40;;;26.60;55.50;;;;;;5053491;28;20028;-81
2022/07/28 10:22:16;;;;;;;4.53;0.73;;;26.70;55.60;;;;;;5052894;28;20090;-81
2022/07/28 10:24:45;;;;;;;3.80;0.60;;;26.80;57.90;;;;;;5051726;28;20036;-83
2022/07/28 10:27:11;;;;;;;2.72;0.50;;;27.00;59.40;;;;;;5051048;28;20024;-80
2022/07/28 10:29:38;;;;;;;2.10;0.65;;;27.20;56.30;;;;;;5051841;28;20116;-81
2022/07/28 10:32:05;;;;;;;2.38;0.60;;;27.30;58.10;;;;;;5052521;28;20032;-82
2022/07/28 10:34:34;;;;;;;3.60;0.70;;;27.30;54.10;;;;;;5053131;28;20032;-81
2022/07/28 10:37:07;;;;;;;3.13;0.70;;;27.30;52.70;;;;;;5051028;28;20032;-80
2022/07/28 10:39:43;;;;;;;3.92;0.80;;;26.90;52.40;;;;;;5052976;28;20470;-84
2022/07/28 10:42:11;;;;;;;1.88;0.70;;;26.70;60.20;;;;;;5052535;28;20048;-81
2022/07/28 10:44:38;;;;;;;4.97;0.60;;;26.50;54.10;;;;;;5051693;28;20116;-82
2022/07/28 10:47:08;;;;;;;3.55;0.70;;;26.50;56.00;;;;;;5050532;28;20040;-81
2022/07/28 10:49:35;;;;;;;2.00;1.02;;;26.70;55.20;;;;;;5052861;28;20036;-83
2022/07/28 10:52:01;;;;;;;1.98;0.47;;;26.80;56.70;;;;;;5052451;28;20047;-80
2022/07/28 10:54:35;;;;;;;1.73;0.50;;;27.00;53.60;;;;;;5051573;28;20033;-84
2022/07/28 10:57:03;;;;;;;2.75;0.60;;;27.20;53.90;;;;;;5051852;28;20021;-82
2022/07/28 10:59:52;;;;;;;2.03;0.40;;;27.20;52.60;;;;;;5053359;28;20038;-82
2022/07/28 11:02:41;;;;;;;2.65;0.73;;;27.30;56.40;;;;;;5052257;28;20020;-81
2022/07/28 11:05:34;;;;;;;3.25;0.50;;;27.30;52.90;;;;;;5056889;28;20104;-81
2022/07/28 11:08:14;;;;;;;1.83;0.60;;;27.40;55.80;;;;;;5055972;28;20195;-84
2022/07/28 11:10:51;;;;;;;1.92;0.55;;;27.60;53.50;;;;;;5055896;28;20100;-82
2022/07/28 11:13:26;;;;;;;3.25;0.50;;;27.70;52.70;;;;;;5058979;28;20056;-84
2022/07/28 11:15:52;;;;;;;9.38;0.60;;;27.90;53.20;;;;;;5056639;28;20368;-81
2022/07/28 11:18:18;;;;;;;4.07;1.48;;;28.00;56.40;;;;;;5058342;28;20053;-80
2022/07/28 11:20:50;;;;;;;6.93;0.57;;;28.20;53.50;;;;;;5061218;28;20021;-80
2022/07/28 11:23:42;;;;;;;3.35;0.50;;;28.20;52.20;;;;;;5058311;28;20013;-81
2022/07/28 11:26:19;;;;;;;5.82;0.55;;;28.40;53.80;;;;;;5055370;28;20037;-82
2022/07/28 11:29:11;;;;;;;2.63;0.60;;;28.40;52.70;;;;;;5058026;28;20016;-81
2022/07/28 11:31:45;;;;;;;1.40;0.52;;;28.50;53.70;;;;;;5054212;28;20021;-83
2022/07/28 11:34:17;;;;;;;3.17;0.57;;;28.60;50.70;;;;;;5051706;28;20029;-83
2022/07/28 11:37:03;;;;;;;1.77;0.70;;;28.70;50.90;;;;;;5050787;28;20032;-82
2022/07/28 11:39:39;;;;;;;2.28;0.65;;;28.50;49.00;;;;;;5051651;28;20067;-81
2022/07/28 11:42:31;;;;;;;4.38;0.50;;;28.30;49.80;;;;;;5051483;28;20104;-82
2022/07/28 11:45:16;;;;;;;3.10;0.82;;;28.40;52.10;;;;;;5051265;28;20049;-84
2022/07/28 11:47:42;;;;;;;2.67;0.63;;;28.30;54.70;;;;;;5051168;28;20056;-81
2022/07/28 11:50:15;;;;;;;5.60;1.00;;;28.30;54.00;;;;;;5051145;28;20529;-82
2022/07/28 11:52:58;;;;;;;6.18;0.60;;;28.20;52.80;;;;;;5049811;28;20116;-84
2022/07/28 11:55:24;;;;;;;2.70;0.65;;;28.30;53.70;;;;;;5050482;28;20397;-86
2022/07/28 11:57:50;;;;;;;4.75;0.50;;;28.50;52.00;;;;;;5051169;28;20024;-81
2022/07/28 12:00:20;;;;;;;4.13;0.60;;;28.50;49.30;;;;;;5049667;28;20025;-82
2022/07/28 12:02:45;;;;;;;5.32;0.45;;;28.30;51.90;;;;;;5050862;28;20033;-82
2022/07/28 12:05:13;;;;;;;1.77;0.40;;;28.40;49.70;;;;;;5049533;28;20032;-85
2022/07/28 12:07:42;;;;;;;4.20;0.43;;;28.30;50.40;;;;;;5050819;28;20025;-83
2022/07/28 12:10:25;;;;;;;5.47;0.47;;;28.30;49.90;;;;;;5051015;28;20028;-84
2022/07/28 12:12:52;;;;;;;3.28;0.40;;;28.30;50.80;;;;;;5049501;28;20021;-83
2022/07/28 12:15:19;;;;;;;2.25;0.47;;;28.40;50.60;;;;;;5050405;28;20055;-84
2022/07/28 12:17:45;;;;;;;1.17;0.40;;;28.30;50.50;;;;;;5049463;28;20021;-85
2022/07/28 12:20:12;;;;;;;1.35;0.40;;;28.40;49.00;;;;;;5050827;28;20469;-84
2022/07/28 12:22:38;;;;;;;2.35;0.50;;;28.50;48.30;;;;;;5050501;28;20028;-84
2022/07/28 12:25:04;;;;;;;3.83;0.50;;;28.50;48.70;;;;;;5049491;28;20116;-86
2022/07/28 12:27:30;;;;;;;2.60;0.77;;;28.70;48.10;;;;;;5048838;28;20472;-83
2022/07/28 12:29:59;;;;;;;2.50;0.60;;;28.80;49.70;;;;;;5050872;28;20029;-82
2022/07/28 12:32:32;;;;;;;1.98;0.40;;;28.90;51.00;;;;;;5050032;28;20040;-85
2022/07/28 12:34:57;;;;;;;2.75;0.43;;;28.90;50.60;;;;;;5049118;28;20025;-84
2022/07/28 12:37:23;;;;;;;1.10;0.40;;;29.00;48.00;;;;;;5049818;28;20539;-84
2022/07/28 12:39:52;;;;;;;2.10;0.90;;;28.90;47.20;;;;;;5049342;28;20154;-85
2022/07/28 12:42:18;;;;;;;4.13;0.50;;;28.70;47.00;;;;;;5050333;28;20025;-84
2022/07/28 12:44:50;;;;;;;3.45;0.68;;;28.50;47.40;;;;;;5050803;28;20035;-84
2022/07/28 12:47:25;;;;;;;2.90;0.53;;;28.40;47.20;;;;;;5048424;28;20032;-83
2022/07/28 12:50:08;;;;;;;3.97;0.38;;;28.00;47.50;;;;;;5048933;28;20621;-83
2022/07/28 12:52:34;;;;;;;2.40;0.70;;;27.80;46.60;;;;;;5048875;28;20653;-83
2022/07/28 12:55:00;;;;;;;1.75;0.60;;;27.70;46.20;;;;;;5050294;28;20025;-83